^^
Saratoga-Weather Station Historical Data
Daily Summary for January 26, 2021 Units:  English    Metric   Both
Daily Weekly Monthly Yearly Custom
  High: Low: Average:
Temperature: 68.4 °F 55.6 °F 61.2 °F
Dew Point: 63.7 °F 54.7 °F 59 °F
Humidity: 98% 78% 93%
Wind Speed: 6.9mph 0mph 0.5mph
Wind Gust: 9mph - -
Wind- - WSW
Pressure: 30 in 29.9 in -
Precipitation: 0.06 in    
Historical Graphs
 
 
Tabular Data for January 26, 2021
Time Temperature Dew Point Pressure Wind Wind Speed Wind Gust Humidity Rainfall Rate (Hourly) solar
00:00 60.1 °F 58.6 °F 30 in Calm     95% 0 in 0 W/m2
00:05 60.1 °F 58.6 °F 30 in Calm     95% 0 in 0 W/m2
00:10 60.1 °F 58.6 °F 30 in Calm     95% 0 in 0 W/m2
00:15 60.1 °F 58.6 °F 30 in Calm     95% 0 in 0 W/m2
00:20 60.1 °F 58.6 °F 30 in Calm     95% 0 in 0 W/m2
00:25 60.1 °F 58.6 °F 30 in Calm     95% 0 in 0 W/m2
00:30 60.1 °F 58.6 °F 30 in Calm     95% 0 in 0 W/m2
00:35 60.1 °F 59 °F 30 in Calm     96% 0 in 0 W/m2
00:40 60.3 °F 59.2 °F 30 in Calm     96% 0 in 0 W/m2
00:45 60.3 °F 59.2 °F 30 in Calm   2 mph 96% 0 in 0 W/m2
00:50 60.3 °F 59.2 °F 30 in Calm     96% 0 in 0 W/m2
00:55 60.1 °F 59 °F 30 in Calm   1 mph 96% 0 in 0 W/m2
01:00 60.1 °F 59 °F 30 in Calm     96% 0 in 0 W/m2
01:05 60.1 °F 59 °F 30 in Calm     96% 0 in 0 W/m2
01:10 59.9 °F 58.8 °F 30 in Calm     96% 0 in 0 W/m2
01:15 59.7 °F 58.6 °F 30 in Calm     96% 0 in 0 W/m2
01:20 59.7 °F 58.6 °F 30 in Calm     96% 0 in 0 W/m2
01:25 59.5 °F 58.5 °F 30 in Calm     96% 0 in 0 W/m2
01:30 59.4 °F 57.9 °F 30 in Calm     95% 0 in 0 W/m2
01:35 59.4 °F 58.3 °F 30 in Calm     96% 0 in 0 W/m2
01:40 59.2 °F 58.1 °F 30 in Calm     96% 0 in 0 W/m2
01:45 59 °F 57.6 °F 30 in Calm     95% 0 in 0 W/m2
01:50 58.8 °F 57.4 °F 30 in Calm     95% 0 in 0 W/m2
01:55 58.6 °F 57.6 °F 30 in Calm     96% 0 in 0 W/m2
02:00 58.5 °F 57.4 °F 30 in Calm     96% 0 in 0 W/m2
02:05 58.5 °F 57.4 °F 30 in Calm     96% 0 in 0 W/m2
02:10 58.3 °F 57.2 °F 30 in Calm     96% 0 in 0 W/m2
02:15 58.3 °F 57.2 °F 30 in Calm     96% 0 in 0 W/m2
02:20 58.3 °F 57.2 °F 30 in Calm     96% 0 in 0 W/m2
02:25 58.5 °F 57.4 °F 30 in Calm     96% 0 in 0 W/m2
02:30 58.3 °F 57.2 °F 30 in Calm     96% 0 in 0 W/m2
02:35 58.5 °F 57.4 °F 30 in Calm     96% 0 in 0 W/m2
02:40 58.5 °F 57.4 °F 30 in Calm     96% 0 in 0 W/m2
02:45 58.5 °F 57.4 °F 30 in Calm     96% 0 in 0 W/m2
02:50 58.5 °F 57.4 °F 30 in Calm     96% 0 in 0 W/m2
02:55 58.3 °F 57.2 °F 30 in Calm     96% 0 in 0 W/m2
03:00 58.5 °F 57.4 °F 30 in Calm     96% 0 in 0 W/m2
03:05 58.5 °F 57.4 °F 30 in Calm     96% 0 in 0 W/m2
03:10 58.5 °F 57.4 °F 30 in Calm     96% 0 in 0 W/m2
03:15 58.3 °F 57.2 °F 30 in Calm     96% 0 in 0 W/m2
03:20 58.3 °F 57.2 °F 30 in Calm     96% 0 in 0 W/m2
03:25 58.1 °F 57 °F 30 in Calm     96% 0 in 0 W/m2
03:30 57.9 °F 56.8 °F 30 in Calm     96% 0 in 0 W/m2
03:35 57.9 °F 56.8 °F 30 in Calm     96% 0 in 0 W/m2
03:41 57.7 °F 56.7 °F 30 in Calm     96% 0 in 0 W/m2
03:46 57.7 °F 56.7 °F 30 in Calm     96% 0 in 0 W/m2
03:51 57.6 °F 56.5 °F 30 in Calm     96% 0 in 0 W/m2
03:56 57.6 °F 56.5 °F 30 in Calm     96% 0 in 0 W/m2
04:01 57.4 °F 56.3 °F 30 in Calm     96% 0 in 0 W/m2
04:06 57.4 °F 56.3 °F 30 in Calm     96% 0 in 0 W/m2
04:11 57.6 °F 56.7 °F 30 in Calm     97% 0 in 0 W/m2
04:16 57.7 °F 56.8 °F 30 in Calm   1 mph 97% 0 in 0 W/m2
04:21 57.9 °F 57 °F 30 in SSE 0.9 mph 1 mph 97% 0 in 0 W/m2
04:26 58.3 °F 57.4 °F 30 in Calm     97% 0 in 0 W/m2
04:31 57.9 °F 57 °F 30 in Calm     97% 0 in 0 W/m2
04:36 57.7 °F 56.7 °F 30 in Calm     96% 0.01 in 0 W/m2
04:41 57.7 °F 56.7 °F 30 in Calm     96% 0.01 in 0 W/m2
04:46 57.6 °F 56.5 °F 30 in Calm   1 mph 96% 0.01 in 0 W/m2
04:51 57.6 °F 56.5 °F 30 in Calm     96% 0.01 in 0 W/m2
04:56 57.4 °F 56.3 °F 30 in Calm     96% 0.01 in 0 W/m2
05:01 57.4 °F 56.3 °F 30 in Calm     96% 0.01 in 0 W/m2
05:06 57.2 °F 56.1 °F 30 in Calm     96% 0.01 in 0 W/m2
05:11 57.2 °F 56.1 °F 30 in Calm     96% 0.01 in 0 W/m2
05:16 57.2 °F 56.3 °F 30 in Calm     97% 0.01 in 0 W/m2
05:21 57.4 °F 56.5 °F 30 in Calm     97% 0.01 in 0 W/m2
05:26 57.2 °F 56.3 °F 30 in Calm     97% 0.01 in 0 W/m2
05:31 57 °F 56.1 °F 30 in Calm     97% 0.01 in 0 W/m2
05:36 56.8 °F 55.9 °F 30 in Calm     97% 0 in 0 W/m2
05:41 56.8 °F 55.9 °F 30 in Calm     97% 0 in 0 W/m2
05:46 56.7 °F 55.6 °F 30 in Calm     96% 0 in 0 W/m2
05:51 56.7 °F 55.6 °F 30 in Calm     96% 0 in 0 W/m2
05:56 56.7 °F 55.8 °F 30 in Calm     97% 0 in 0 W/m2
06:01 56.7 °F 55.8 °F 29.9 in Calm     97% 0 in 0 W/m2
06:06 56.5 °F 55.6 °F 30 in Calm     97% 0 in 0 W/m2
06:11 56.5 °F 55.6 °F 30 in Calm     97% 0 in 0 W/m2
06:16 56.3 °F 55.4 °F 30 in Calm     97% 0 in 0 W/m2
06:21 56.3 °F 55.4 °F 30 in SE 0.9 mph 2 mph 97% 0 in 0 W/m2
06:26 56.5 °F 55.6 °F 30 in Calm   2 mph 97% 0 in 0 W/m2
06:31 56.5 °F 55.6 °F 30 in Calm     97% 0 in 0 W/m2
06:36 56.5 °F 55.6 °F 30 in Calm     97% 0 in 0 W/m2
06:41 56.3 °F 55.4 °F 30 in SE 0.9 mph 1 mph 97% 0 in 0 W/m2
06:46 56.1 °F 55.2 °F 30 in Calm   1 mph 97% 0 in 0 W/m2
06:51 56.1 °F 55.2 °F 30 in Calm     97% 0 in 0 W/m2
06:56 56.1 °F 55.2 °F 30 in Calm     97% 0 in 0 W/m2
07:01 56.1 °F 55.2 °F 30 in Calm     97% 0 in 0 W/m2
07:06 55.9 °F 55 °F 30 in Calm     97% 0 in 0 W/m2
07:11 55.9 °F 55 °F 30 in Calm     97% 0 in 0 W/m2
07:16 55.9 °F 55 °F 30 in Calm     97% 0 in 0 W/m2
07:21 55.9 °F 55 °F 30 in Calm     97% 0 in 0 W/m2
07:26 55.8 °F 54.9 °F 30 in Calm     97% 0 in 0 W/m2
07:31 55.8 °F 54.9 °F 30 in Calm     97% 0 in 5 W/m2
07:36 55.8 °F 54.9 °F 30 in Calm     97% 0 in 7 W/m2
07:41 55.8 °F 54.9 °F 30 in Calm     97% 0 in 11 W/m2
07:46 55.6 °F 54.7 °F 30 in Calm     97% 0 in 14 W/m2
07:51 55.6 °F 54.7 °F 30 in Calm     97% 0 in 23 W/m2
07:56 55.8 °F 54.9 °F 30 in SE 0.9 mph 2 mph 97% 0 in 26 W/m2
08:01 55.9 °F 55 °F 30 in Calm     97% 0 in 32 W/m2
08:06 56.1 °F 55.2 °F 30 in Calm     97% 0 in 44 W/m2
08:11 56.1 °F 55.2 °F 30 in Calm     97% 0 in 40 W/m2
08:16 56.5 °F 55.6 °F 30 in Calm     97% 0 in 40 W/m2
08:21 56.7 °F 55.8 °F 30 in Calm     97% 0 in 44 W/m2
08:26 56.7 °F 55.8 °F 30 in Calm     97% 0 in 47 W/m2
08:31 56.8 °F 55.9 °F 30 in ESE 2 mph 4 mph 97% 0 in 49 W/m2
08:36 57 °F 56.1 °F 30 in ESE 2 mph 4 mph 97% 0 in 47 W/m2
08:41 57 °F 56.1 °F 30 in ESE 2 mph 4 mph 97% 0 in 42 W/m2
08:46 57.2 °F 56.3 °F 30 in Calm     97% 0 in 44 W/m2
08:51 57.4 °F 56.5 °F 30 in Calm   4 mph 97% 0 in 46 W/m2
08:57 57.6 °F 56.7 °F 30 in East 2 mph 3 mph 97% 0 in 49 W/m2
09:02 57.6 °F 56.7 °F 30 in Calm   2 mph 97% 0 in 51 W/m2
09:07 57.6 °F 56.7 °F 30 in Calm     97% 0 in 49 W/m2
09:12 57.6 °F 56.7 °F 30 in Calm   2 mph 97% 0 in 44 W/m2
09:17 57.6 °F 56.7 °F 30 in Calm     97% 0 in 44 W/m2
09:22 57.6 °F 56.7 °F 30 in East 0.9 mph 2 mph 97% 0 in 37 W/m2
09:27 57.6 °F 56.7 °F 30 in North 0.9 mph 2 mph 97% 0 in 40 W/m2
09:32 57.7 °F 56.8 °F 30 in Calm   1 mph 97% 0.01 in 47 W/m2
09:37 57.9 °F 57 °F 30 in WNW 0.9 mph 3 mph 97% 0.02 in 49 W/m2
09:42 57.9 °F 57 °F 30 in Calm   3 mph 97% 0.02 in 47 W/m2
09:47 57.9 °F 57 °F 30 in Calm   1 mph 97% 0.02 in 51 W/m2
09:52 58.3 °F 57.4 °F 30 in WNW 0.9 mph 3 mph 97% 0.02 in 60 W/m2
09:57 58.5 °F 57.6 °F 30 in Calm     97% 0.02 in 56 W/m2
10:02 58.6 °F 57.7 °F 30 in Calm   2 mph 97% 0.02 in 60 W/m2
10:07 58.6 °F 57.7 °F 30 in Calm     97% 0.02 in 79 W/m2
10:12 58.8 °F 58.3 °F 30 in Calm     98% 0.02 in 79 W/m2
10:17 59.2 °F 58.6 °F 30 in Calm   1 mph 98% 0.02 in 65 W/m2
10:22 59.4 °F 58.5 °F 30 in East 2 mph 3 mph 97% 0.02 in 51 W/m2
10:27 59.4 °F 58.5 °F 30 in East 0.9 mph 4 mph 97% 0.02 in 42 W/m2
10:32 59.4 °F 58.5 °F 30 in East 0.9 mph 2 mph 97% 0.02 in 40 W/m2
10:37 59.4 °F 58.5 °F 30 in East 0.9 mph 4 mph 97% 0.01 in 40 W/m2
10:42 59.4 °F 58.5 °F 30 in Calm   2 mph 97% 0.01 in 42 W/m2
10:47 59.4 °F 58.5 °F 30 in ESE 2 mph 3 mph 97% 0 in 54 W/m2
10:52 59.4 °F 58.5 °F 30 in Calm   2 mph 97% 0 in 54 W/m2
10:57 59.4 °F 58.5 °F 30 in Calm   2 mph 97% 0 in 49 W/m2
11:02 59.4 °F 58.5 °F 30 in Calm   2 mph 97% 0 in 76 W/m2
11:07 59.5 °F 59 °F 30 in ESE 0.9 mph 2 mph 98% 0 in 83 W/m2
11:12 59.9 °F 59 °F 30 in Calm     97% 0 in 65 W/m2
11:17 60.3 °F 59.4 °F 30 in Calm   2 mph 97% 0 in 47 W/m2
11:22 60.4 °F 59.9 °F 30 in Calm   1 mph 98% 0 in 39 W/m2
11:27 60.4 °F 59.9 °F 30 in East 2 mph 2 mph 98% 0 in 46 W/m2
11:32 60.3 °F 59.7 °F 30 in Calm   2 mph 98% 0 in 37 W/m2
11:37 60.3 °F 59.7 °F 30 in Calm   1 mph 98% 0 in 33 W/m2
11:42 60.3 °F 59.7 °F 30 in Calm     98% 0 in 46 W/m2
11:47 60.3 °F 59.4 °F 30 in Calm     97% 0.01 in 93 W/m2
11:52 60.4 °F 59.5 °F 30 in Calm     97% 0.01 in 76 W/m2
11:57 60.8 °F 59.9 °F 30 in Calm     97% 0.02 in 63 W/m2
12:02 61 °F 60.4 °F 30 in East 0.9 mph 2 mph 98% 0.02 in 114 W/m2
12:07 61.2 °F 60.6 °F 30 in Calm   1 mph 98% 0.02 in 105 W/m2
12:12 61.3 °F 60.8 °F 30 in East 0.9 mph 2 mph 98% 0.03 in 118 W/m2
12:17 61.5 °F 61 °F 30 in Calm     98% 0.03 in 107 W/m2
12:22 61.5 °F 61 °F 30 in Calm     98% 0.03 in 169 W/m2
12:27 61.9 °F 61.3 °F 30 in Calm     98% 0.03 in 234 W/m2
12:32 62.1 °F 61.5 °F 30 in NW 2 mph 3 mph 98% 0.03 in 185 W/m2
12:37 62.1 °F 61.5 °F 30 in WSW 2.9 mph 3 mph 98% 0.03 in 207 W/m2
12:42 62.1 °F 61.5 °F 30 in Calm   1 mph 98% 0.03 in 218 W/m2
12:47 62.2 °F 61.7 °F 30 in Calm     98% 0.02 in 223 W/m2
12:52 62.4 °F 61.9 °F 30 in Calm     98% 0.02 in 248 W/m2
12:57 62.6 °F 62.1 °F 30 in NW 0.9 mph 4 mph 98% 0.02 in 285 W/m2
13:02 62.8 °F 62.2 °F 30 in Calm   2 mph 98% 0.01 in 265 W/m2
13:07 63 °F 62.4 °F 30 in WNW 2.9 mph 4 mph 98% 0.01 in 290 W/m2
13:12 63.3 °F 62.8 °F 30 in West 2 mph 7 mph 98% 0 in 309 W/m2
13:17 63.9 °F 63 °F 30 in WNW 2 mph 4 mph 97% 0 in 250 W/m2
13:22 64.4 °F 63.5 °F 30 in NNW 0.9 mph 3 mph 97% 0 in 278 W/m2
13:27 64.8 °F 63.7 °F 30 in North 0.9 mph 3 mph 96% 0 in 227 W/m2
13:32 65.3 °F 63.5 °F 30 in Calm   2 mph 94% 0 in 334 W/m2
13:37 65.7 °F 63.5 °F 30 in West 6.9 mph 7 mph 93% 0 in 313 W/m2
13:42 66 °F 63.7 °F 30 in West 0.9 mph 3 mph 92% 0 in 294 W/m2
13:47 66.4 °F 63.7 °F 30 in NW 0.9 mph 3 mph 91% 0 in 341 W/m2
13:52 66.6 °F 63.1 °F 30 in Calm   2 mph 89% 0 in 278 W/m2
13:57 66.7 °F 63.1 °F 30 in Calm   4 mph 88% 0 in 320 W/m2
14:02 66.9 °F 63 °F 30 in Calm   3 mph 87% 0 in 408 W/m2
14:07 67.1 °F 63.1 °F 30 in Calm     87% 0 in 186 W/m2
14:12 67.3 °F 63 °F 30 in West 2 mph 3 mph 86% 0 in 132 W/m2
14:17 67.3 °F 63 °F 30 in SW 2 mph 3 mph 86% 0 in 197 W/m2
14:22 67.3 °F 63 °F 30 in Calm   2 mph 86% 0 in 113 W/m2
14:27 67.1 °F 63.1 °F 30 in WNW 0.9 mph 2 mph 87% 0 in 76 W/m2
14:32 67.1 °F 63.1 °F 30 in NW 2.9 mph 3 mph 87% 0 in 267 W/m2
14:37 67.1 °F 63.1 °F 30 in WSW 2.9 mph 4 mph 87% 0 in 185 W/m2
14:42 67.1 °F 63.1 °F 30 in West 4 mph 6 mph 87% 0 in 246 W/m2
14:47 66.9 °F 62.6 °F 30 in WNW 0.9 mph 4 mph 86% 0 in 200 W/m2
14:52 66.7 °F 62.4 °F 30 in WNW 4 mph 4 mph 86% 0 in 209 W/m2
14:57 66.7 °F 62.4 °F 30 in NNW 2.9 mph 3 mph 86% 0 in 155 W/m2
15:02 66.6 °F 61.9 °F 30 in Calm   7 mph 85% 0 in 186 W/m2
15:07 66.4 °F 61.7 °F 30 in NW 2.9 mph 8 mph 85% 0 in 178 W/m2
15:12 66.4 °F 61.7 °F 30 in WNW 2 mph 7 mph 85% 0 in 334 W/m2
15:17 66.4 °F 61.7 °F 30 in WNW 2.9 mph 8 mph 85% 0 in 234 W/m2
15:22 66.6 °F 61.5 °F 30 in NNE 0.9 mph 2 mph 84% 0 in 285 W/m2
15:27 66.6 °F 61.5 °F 30 in NW 4 mph 9 mph 84% 0 in 230 W/m2
15:32 66.6 °F 61.5 °F 30 in NNW 2 mph 2 mph 84% 0 in 262 W/m2
15:37 66.7 °F 61.7 °F 30 in NW 4 mph 9 mph 84% 0 in 139 W/m2
15:42 66.6 °F 61.5 °F 30 in WNW 2.9 mph 5 mph 84% 0 in 93 W/m2
15:47 66.6 °F 61.5 °F 30 in NW 2.9 mph 5 mph 84% 0 in 93 W/m2
15:52 66.4 °F 61.3 °F 30 in NW 0.9 mph 7 mph 84% 0 in 93 W/m2
15:57 66.4 °F 61.3 °F 30 in Calm   1 mph 84% 0 in 135 W/m2
16:02 66.4 °F 62.1 °F 30 in WSW 0.9 mph 7 mph 86% 0 in 163 W/m2
16:07 66.4 °F 61.7 °F 30 in WNW 0.9 mph 3 mph 85% 0 in 285 W/m2
16:12 66.6 °F 61.5 °F 30 in Calm   4 mph 84% 0 in 204 W/m2
16:17 66.7 °F 61.7 °F 30 in Calm   4 mph 84% 0 in 209 W/m2
16:22 66.9 °F 61.5 °F 30 in Calm   3 mph 83% 0 in 169 W/m2
16:27 67.1 °F 62.1 °F 30 in WSW 2.9 mph 3 mph 84% 0 in 213 W/m2
16:32 67.1 °F 61.7 °F 30 in Calm   3 mph 83% 0 in 255 W/m2
16:37 67.5 °F 62.1 °F 30 in WNW 2.9 mph 7 mph 83% 0 in 258 W/m2
16:43 67.5 °F 61.7 °F 30 in WNW 0.9 mph 7 mph 82% 0 in 195 W/m2
16:48 67.5 °F 61.7 °F 30 in West 4 mph 6 mph 82% 0 in 183 W/m2
16:53 67.3 °F 61.5 °F 30 in WNW 4 mph 4 mph 82% 0 in 151 W/m2
16:58 67.3 °F 61.5 °F 30 in West 0.9 mph 3 mph 82% 0 in 207 W/m2
17:03 67.3 °F 61.5 °F 30 in NW 0.9 mph 3 mph 82% 0 in 243 W/m2
17:08 67.6 °F 61.9 °F 30 in West 4 mph 4 mph 82% 0 in 223 W/m2
17:13 67.8 °F 61.7 °F 30 in WSW 0.9 mph 4 mph 81% 0 in 408 W/m2
17:18 68 °F 61.5 °F 30 in WNW 0.9 mph 6 mph 80% 0 in 179 W/m2
17:23 68.2 °F 61.3 °F 30 in West 2 mph 3 mph 79% 0 in 246 W/m2
17:28 68.2 °F 61 °F 30 in NNW 2 mph 6 mph 78% 0 in 216 W/m2
17:33 68.4 °F 61.9 °F 30 in West 0.9 mph 3 mph 80% 0 in 183 W/m2
17:38 68.2 °F 61.7 °F 30 in Calm   1 mph 80% 0 in 135 W/m2
17:43 68.4 °F 62.6 °F 30 in Calm   1 mph 82% 0 in 109 W/m2
17:48 68.2 °F 62.4 °F 30 in Calm     82% 0 in 104 W/m2
17:53 68.2 °F 62.8 °F 30 in Calm     83% 0 in 88 W/m2
17:58 67.8 °F 62.4 °F 30 in Calm     83% 0 in 63 W/m2
18:03 67.6 °F 62.6 °F 30 in Calm     84% 0 in 51 W/m2
18:08 67.5 °F 62.8 °F 30 in Calm     85% 0 in 49 W/m2
18:13 66.9 °F 62.6 °F 30 in Calm     86% 0 in 51 W/m2
18:18 66.6 °F 62.2 °F 30 in Calm     86% 0 in 51 W/m2
18:23 66.4 °F 62.4 °F 30 in Calm     87% 0 in 49 W/m2
18:28 66 °F 62.1 °F 30 in Calm   1 mph 87% 0 in 46 W/m2
18:33 65.8 °F 61.9 °F 30 in Calm     87% 0 in 47 W/m2
18:38 65.5 °F 61.9 °F 30 in Calm     88% 0 in 46 W/m2
18:43 65.1 °F 61.5 °F 30 in Calm     88% 0 in 46 W/m2
18:48 64.9 °F 61.7 °F 30 in Calm     89% 0 in 49 W/m2
18:53 64.9 °F 61.7 °F 30 in Calm     89% 0 in 51 W/m2
18:58 64.8 °F 61.5 °F 30 in Calm     89% 0 in 33 W/m2
19:03 64.8 °F 61.7 °F 30 in Calm     90% 0 in 25 W/m2
19:08 64.6 °F 61.5 °F 30 in Calm     90% 0 in 19 W/m2
19:13 64.6 °F 61.5 °F 30 in Calm     90% 0 in 14 W/m2
19:18 64.2 °F 61.2 °F 30 in Calm     90% 0 in 9 W/m2
19:23 64.2 °F 61.2 °F 30 in Calm     90% 0 in 0 W/m2
19:28 64 °F 61 °F 30 in Calm     90% 0 in 0 W/m2
19:33 63.9 °F 60.8 °F 30 in Calm     90% 0 in 0 W/m2
19:38 63.9 °F 60.8 °F 30 in Calm     90% 0 in 0 W/m2
19:43 63.7 °F 60.6 °F 30 in Calm     90% 0 in 0 W/m2
19:48 63.3 °F 60.6 °F 30 in Calm     91% 0 in 0 W/m2
19:53 63.1 °F 60.1 °F 30 in Calm     90% 0 in 0 W/m2
19:58 62.8 °F 60.1 °F 30 in Calm     91% 0 in 0 W/m2
20:03 62.6 °F 59.9 °F 30 in Calm     91% 0 in 0 W/m2
20:08 62.2 °F 59.5 °F 30 in Calm     91% 0 in 0 W/m2
20:13 62.1 °F 59.4 °F 30 in Calm     91% 0 in 0 W/m2
20:18 61.7 °F 59 °F 30 in Calm     91% 0 in 0 W/m2
20:23 61.5 °F 58.8 °F 30 in Calm     91% 0 in 0 W/m2
20:28 61.2 °F 58.8 °F 30 in Calm     92% 0 in 0 W/m2
20:33 61 °F 58.6 °F 30 in Calm     92% 0 in 0 W/m2
20:38 60.6 °F 58.3 °F 30 in Calm     92% 0 in 0 W/m2
20:43 60.4 °F 58.5 °F 30 in Calm     93% 0 in 0 W/m2
20:48 60.3 °F 58.3 °F 30 in Calm     93% 0 in 0 W/m2
20:53 60.3 °F 58.3 °F 30 in Calm   1 mph 93% 0 in 0 W/m2
20:58 60.3 °F 58.5 °F 30 in NE 0.9 mph 2 mph 94% 0 in 0 W/m2
21:03 60.3 °F 58.5 °F 30 in WSW 2 mph 2 mph 94% 0 in 0 W/m2
21:08 60.3 °F 58.5 °F 30 in Calm   1 mph 94% 0 in 0 W/m2
21:13 60.4 °F 58.6 °F 30 in Calm   1 mph 94% 0 in 0 W/m2
21:18 60.4 °F 58.6 °F 30 in Calm     94% 0 in 0 W/m2
21:23 60.4 °F 58.6 °F 30 in WSW 0.9 mph 2 mph 94% 0 in 0 W/m2
21:28 60.4 °F 58.6 °F 30 in Calm   1 mph 94% 0 in 0 W/m2
21:33 60.6 °F 58.8 °F 30 in NNW 0.9 mph 1 mph 94% 0 in 0 W/m2
21:38 61 °F 59.2 °F 30 in Calm   4 mph 94% 0 in 0 W/m2
21:43 61 °F 59 °F 30 in Calm   2 mph 93% 0 in 0 W/m2
21:48 61.3 °F 59.5 °F 30 in NW 0.9 mph 4 mph 94% 0 in 0 W/m2
21:53 61.5 °F 59.5 °F 30 in Calm     93% 0 in 0 W/m2
21:58 61.5 °F 59.2 °F 30 in Calm   2 mph 92% 0 in 0 W/m2
22:03 61.3 °F 59 °F 30 in Calm     92% 0 in 0 W/m2
22:08 61.2 °F 59.2 °F 30 in Calm   1 mph 93% 0 in 0 W/m2
22:13 61.2 °F 59.2 °F 30 in Calm   4 mph 93% 0 in 0 W/m2
22:18 61.2 °F 59.2 °F 30 in WNW 0.9 mph 4 mph 93% 0 in 0 W/m2
22:23 61.3 °F 59 °F 30 in WNW 0.9 mph 2 mph 92% 0 in 0 W/m2
22:28 61.2 °F 58.8 °F 30 in Calm   1 mph 92% 0 in 0 W/m2
22:33 61.2 °F 58.8 °F 30 in Calm     92% 0 in 0 W/m2
22:38 61.2 °F 58.8 °F 30 in Calm   3 mph 92% 0 in 0 W/m2
22:43 61.2 °F 58.8 °F 30 in Calm   2 mph 92% 0 in 0 W/m2
22:48 61 °F 58.6 °F 30 in Calm   3 mph 92% 0 in 0 W/m2
22:53 61 °F 58.6 °F 30 in Calm   3 mph 92% 0 in 0 W/m2
22:58 61 °F 58.6 °F 30 in Calm   1 mph 92% 0 in 0 W/m2
23:03 61 °F 58.6 °F 30 in NNE 2.9 mph 3 mph 92% 0 in 0 W/m2
23:08 61 °F 58.6 °F 30 in WSW 2 mph 3 mph 92% 0 in 0 W/m2
23:13 61.2 °F 58.5 °F 30 in Calm   2 mph 91% 0 in 0 W/m2
23:18 61.2 °F 58.5 °F 30 in Calm   2 mph 91% 0 in 0 W/m2
23:23 61.2 °F 58.5 °F 30 in SSW 0.9 mph 2 mph 91% 0 in 0 W/m2
23:28 61.2 °F 58.3 °F 30 in WNW 0.9 mph 3 mph 90% 0 in 0 W/m2
23:33 61.2 °F 58.3 °F 30 in Calm   1 mph 90% 0 in 0 W/m2
23:38 61.2 °F 58.3 °F 30 in North 0.9 mph 2 mph 90% 0 in 0 W/m2
23:43 61 °F 58.1 °F 30 in Calm   1 mph 90% 0 in 0 W/m2
23:48 61 °F 58.1 °F 30 in NW 2 mph 3 mph 90% 0 in 0 W/m2
23:53 61.2 °F 58.3 °F 30 in North 0.9 mph 2 mph 90% 0 in 0 W/m2
23:58 61.2 °F 58.3 °F 30 in Calm   2 mph 90% 0 in 0 W/m2
Juneau County Weather
Compliments of Weather Underground - 4 mb